METAR Data
IDs: Format: Raw Decoded Include TAF

Data at: 1353 UTC 26 Feb 2021

KI74 261335Z AUTO 11011KT 10SM CLR M01/M04 A3030 RMK AO2